Time;durP1;ratioP1;P1;durP2;ratioP2;P2;SDS_P1;SDS_P2;PMS_P1;PMS_P2;Temp;Humidity;BMP_temperature;BMP_pressure;BME280_temperature;BME280_humidity;BME280_pressure;Samples;Min_cycle;Max_cycle;Signal;HPM_P1;HPM_P2
2022/09/01 00:01:33;;;;;;;;;;;21.40;45.80;;;;;;452366;261;1212;-49
2022/09/01 00:03:33;;;;;;;;;;;21.40;45.80;;;;;;452365;261;2073;-49
2022/09/01 00:05:35;;;;;;;;;;;21.40;45.70;;;;;;452367;261;2178;-49
2022/09/01 00:07:35;;;;;;;;;;;21.40;45.70;;;;;;452644;261;2158;-49
2022/09/01 00:09:37;;;;;;;;;;;21.40;45.60;;;;;;452396;261;1557;-49
2022/09/01 00:11:38;;;;;;;;;;;21.40;45.50;;;;;;452542;261;1366;-49
2022/09/01 00:13:39;;;;;;;;;;;21.40;45.50;;;;;;452385;261;1271;-49
2022/09/01 00:15:41;;;;;;;;;;;21.40;45.50;;;;;;452658;261;1713;-48
2022/09/01 00:17:42;;;;;;;;;;;21.40;45.50;;;;;;452493;261;1288;-49
2022/09/01 00:19:43;;;;;;;;;;;21.40;45.50;;;;;;452394;261;1583;-49
2022/09/01 00:21:45;;;;;;;;;;;21.50;45.50;;;;;;452632;261;1255;-49
2022/09/01 00:23:46;;;;;;;;;;;21.40;45.30;;;;;;452757;261;1260;-49
2022/09/01 00:25:47;;;;;;;;;;;21.40;45.30;;;;;;452728;261;2225;-49
2022/09/01 00:27:49;;;;;;;;;;;21.40;45.30;;;;;;452362;261;1330;-49
2022/09/01 00:29:50;;;;;;;;;;;21.40;45.30;;;;;;452655;261;1357;-49
2022/09/01 00:31:51;;;;;;;;;;;21.50;45.30;;;;;;452740;261;1327;-48
2022/09/01 00:33:53;;;;;;;;;;;21.40;45.20;;;;;;452524;261;1287;-49
2022/09/01 00:35:54;;;;;;;;;;;21.40;45.20;;;;;;452417;261;1313;-49
2022/09/01 00:37:55;;;;;;;;;;;21.40;45.20;;;;;;452507;261;1252;-49
2022/09/01 00:39:57;;;;;;;;;;;21.40;45.10;;;;;;452384;261;1248;-49
2022/09/01 00:41:58;;;;;;;;;;;21.40;45.10;;;;;;452758;261;1287;-49
2022/09/01 00:43:59;;;;;;;;;;;21.50;45.10;;;;;;452758;261;1128;-49
2022/09/01 00:46:01;;;;;;;;;;;21.50;45.10;;;;;;452773;261;2237;-49
2022/09/01 00:48:04;;;;;;;;;;;21.40;45.00;;;;;;452510;261;1117;-48
2022/09/01 00:50:04;;;;;;;;;;;21.40;45.00;;;;;;452399;261;2434;-49
2022/09/01 00:52:05;;;;;;;;;;;21.50;45.00;;;;;;452368;261;1538;-49
2022/09/01 00:54:07;;;;;;;;;;;21.50;45.00;;;;;;452391;261;1251;-48
2022/09/01 00:56:08;;;;;;;;;;;21.40;44.80;;;;;;452731;261;1240;-49
2022/09/01 00:58:09;;;;;;;;;;;21.40;44.90;;;;;;452773;261;1170;-49
2022/09/01 01:00:11;;;;;;;;;;;21.40;44.90;;;;;;452635;261;1280;-48
2022/09/01 01:02:12;;;;;;;;;;;21.40;44.80;;;;;;452438;261;1341;-49
2022/09/01 01:04:14;;;;;;;;;;;21.40;44.90;;;;;;452436;261;1404;-49
2022/09/01 01:06:15;;;;;;;;;;;21.40;44.80;;;;;;452338;261;2180;-50
2022/09/01 01:08:18;;;;;;;;;;;21.40;44.80;;;;;;452321;261;1643;-49
2022/09/01 01:10:18;;;;;;;;;;;21.50;44.70;;;;;;452351;261;2256;-48
2022/09/01 01:12:19;;;;;;;;;;;21.40;44.70;;;;;;452407;261;1313;-49
2022/09/01 01:14:21;;;;;;;;;;;21.40;44.70;;;;;;452652;261;1247;-48
2022/09/01 01:16:23;;;;;;;;;;;21.40;44.70;;;;;;452488;261;1718;-49
2022/09/01 01:18:23;;;;;;;;;;;21.40;44.70;;;;;;452700;261;1317;-49
2022/09/01 01:23:02;;;;;;;;;;;21.40;44.60;;;;;;452338;264;1255;-48
2022/09/01 01:25:03;;;;;;;;;;;21.50;44.60;;;;;;452489;261;2213;-49
2022/09/01 01:27:05;;;;;;;;;;;21.50;44.60;;;;;;452333;261;1204;-49
2022/09/01 01:29:08;;;;;;;;;;;21.50;44.60;;;;;;452770;261;1324;-49
2022/09/01 01:31:10;;;;;;;;;;;21.50;44.80;;;;;;452362;261;1307;-49
2022/09/01 01:33:09;;;;;;;;;;;21.40;44.90;;;;;;452639;261;1793;-49
2022/09/01 01:35:13;;;;;;;;;;;21.40;44.90;;;;;;452391;261;1267;-49
2022/09/01 01:37:13;;;;;;;;;;;21.40;44.80;;;;;;452752;261;1520;-49
2022/09/01 01:39:15;;;;;;;;;;;21.40;44.70;;;;;;452783;261;1091;-49
2022/09/01 01:41:16;;;;;;;;;;;21.40;44.70;;;;;;452745;261;1118;-49
2022/09/01 01:43:20;;;;;;;;;;;21.40;44.70;;;;;;452638;261;1097;-49
2022/09/01 01:45:20;;;;;;;;;;;21.50;44.60;;;;;;452581;261;2190;-49
2022/09/01 01:47:22;;;;;;;;;;;21.40;44.60;;;;;;452695;261;1069;-49
2022/09/01 01:49:23;;;;;;;;;;;21.40;44.60;;;;;;452493;261;1152;-49
2022/09/01 01:51:27;;;;;;;;;;;21.50;44.50;;;;;;452550;261;1115;-49
2022/09/01 01:53:26;;;;;;;;;;;21.40;44.50;;;;;;452724;261;2266;-48
2022/09/01 01:55:27;;;;;;;;;;;21.40;44.50;;;;;;452397;261;1228;-48
2022/09/01 01:57:30;;;;;;;;;;;21.40;44.50;;;;;;452721;261;1284;-49
2022/09/01 01:59:30;;;;;;;;;;;21.40;44.50;;;;;;452767;261;2190;-48
2022/09/01 02:01:31;;;;;;;;;;;21.40;44.50;;;;;;452792;261;1267;-50
2022/09/01 02:03:35;;;;;;;;;;;21.40;44.40;;;;;;452354;261;1306;-50
2022/09/01 02:05:34;;;;;;;;;;;21.40;44.40;;;;;;452237;261;2221;-50
2022/09/01 02:07:36;;;;;;;;;;;21.40;44.30;;;;;;452543;261;1406;-50
2022/09/01 02:09:38;;;;;;;;;;;21.40;44.40;;;;;;452336;261;1303;-49
2022/09/01 02:11:38;;;;;;;;;;;21.40;44.30;;;;;;452722;261;2346;-50
2022/09/01 02:13:40;;;;;;;;;;;21.40;44.30;;;;;;452685;261;1255;-49
2022/09/01 02:15:43;;;;;;;;;;;21.50;44.30;;;;;;452679;261;1261;-49
2022/09/01 02:17:45;;;;;;;;;;;21.40;44.30;;;;;;452759;261;2443;-50
2022/09/01 02:19:46;;;;;;;;;;;21.40;44.30;;;;;;452493;261;2343;-49
2022/09/01 02:21:47;;;;;;;;;;;21.40;44.20;;;;;;452514;261;2303;-49
2022/09/01 02:23:47;;;;;;;;;;;21.40;44.20;;;;;;452778;261;2448;-50
2022/09/01 02:25:49;;;;;;;;;;;21.40;44.20;;;;;;452391;261;2218;-50
2022/09/01 02:27:52;;;;;;;;;;;21.40;44.20;;;;;;452387;261;2002;-50
2022/09/01 02:29:52;;;;;;;;;;;21.40;44.20;;;;;;452783;261;2326;-49
2022/09/01 02:31:53;;;;;;;;;;;21.40;44.10;;;;;;452779;261;2087;-49
2022/09/01 02:33:54;;;;;;;;;;;21.40;44.10;;;;;;452382;261;1218;-50
2022/09/01 02:35:55;;;;;;;;;;;21.50;44.20;;;;;;452743;261;1380;-50
2022/09/01 02:37:59;;;;;;;;;;;21.50;44.10;;;;;;452391;261;1156;-50
2022/09/01 02:39:58;;;;;;;;;;;21.50;44.10;;;;;;452376;261;2445;-50
2022/09/01 02:42:00;;;;;;;;;;;21.40;44.00;;;;;;452512;261;1263;-50
2022/09/01 02:44:02;;;;;;;;;;;21.50;44.10;;;;;;452561;261;1311;-51
2022/09/01 02:46:05;;;;;;;;;;;21.50;44.00;;;;;;452422;261;2213;-49
2022/09/01 02:48:06;;;;;;;;;;;21.50;44.00;;;;;;452436;261;2461;-50
2022/09/01 02:50:05;;;;;;;;;;;21.50;44.00;;;;;;452437;261;2314;-50
2022/09/01 02:52:07;;;;;;;;;;;21.50;44.00;;;;;;452454;261;1232;-50
2022/09/01 02:54:08;;;;;;;;;;;21.50;44.00;;;;;;452465;261;1266;-50
2022/09/01 02:56:10;;;;;;;;;;;21.50;44.00;;;;;;452805;261;1232;-50
2022/09/01 02:58:17;;;;;;;;;;;21.50;43.90;;;;;;452833;261;1921;-50
2022/09/01 03:00:21;;;;;;;;;;;21.50;43.90;;;;;;452729;261;1772;-49
2022/09/01 03:02:21;;;;;;;;;;;21.50;43.90;;;;;;452453;261;2228;-50
2022/09/01 03:04:22;;;;;;;;;;;21.50;44.00;;;;;;452451;261;1935;-50
2022/09/01 03:06:24;;;;;;;;;;;21.40;44.10;;;;;;452753;261;2185;-50
2022/09/01 03:08:26;;;;;;;;;;;21.40;44.10;;;;;;452570;261;1307;-50
2022/09/01 03:10:31;;;;;;;;;;;21.50;44.20;;;;;;452807;261;1632;-50
2022/09/01 03:12:28;;;;;;;;;;;21.50;44.20;;;;;;452597;261;2368;-49
2022/09/01 03:14:30;;;;;;;;;;;21.40;44.10;;;;;;452829;261;1304;-49
2022/09/01 03:16:30;;;;;;;;;;;21.40;44.20;;;;;;452416;261;2450;-51
2022/09/01 03:18:32;;;;;;;;;;;21.40;44.40;;;;;;452824;261;1367;-50
2022/09/01 03:20:33;;;;;;;;;;;21.40;44.50;;;;;;452598;261;1584;-50
2022/09/01 03:22:34;;;;;;;;;;;21.40;44.60;;;;;;452405;261;1308;-50
2022/09/01 03:24:36;;;;;;;;;;;21.40;44.80;;;;;;452585;261;1231;-50
2022/09/01 03:26:37;;;;;;;;;;;21.40;44.80;;;;;;452433;261;2205;-49
2022/09/01 03:28:38;;;;;;;;;;;21.40;44.90;;;;;;452833;261;1246;-50
2022/09/01 03:30:40;;;;;;;;;;;21.40;45.00;;;;;;452450;261;1241;-50
2022/09/01 03:32:41;;;;;;;;;;;21.40;45.10;;;;;;452470;261;1194;-50
2022/09/01 03:34:42;;;;;;;;;;;21.40;45.10;;;;;;452814;261;1294;-50
2022/09/01 03:36:48;;;;;;;;;;;21.40;45.20;;;;;;452799;261;1281;-50
2022/09/01 03:38:47;;;;;;;;;;;21.40;45.20;;;;;;452868;261;1894;-50
2022/09/01 03:40:48;;;;;;;;;;;21.40;45.20;;;;;;452426;261;2198;-50
2022/09/01 03:42:51;;;;;;;;;;;21.40;45.30;;;;;;452832;261;1211;-50
2022/09/01 03:44:50;;;;;;;;;;;21.40;45.30;;;;;;452604;261;2349;-49
2022/09/01 03:46:52;;;;;;;;;;;21.40;45.30;;;;;;452457;261;2179;-50
2022/09/01 03:48:53;;;;;;;;;;;21.40;45.30;;;;;;452426;261;1273;-50
2022/09/01 03:50:54;;;;;;;;;;;21.40;45.40;;;;;;452818;261;1376;-50
2022/09/01 03:52:57;;;;;;;;;;;21.40;45.40;;;;;;452596;261;1278;-50
2022/09/01 03:54:58;;;;;;;;;;;21.40;45.40;;;;;;452420;261;1897;-50
2022/09/01 03:56:59;;;;;;;;;;;21.40;45.40;;;;;;452426;261;1947;-50
2022/09/01 03:59:00;;;;;;;;;;;21.40;45.50;;;;;;452434;261;1295;-50
2022/09/01 04:01:01;;;;;;;;;;;21.40;45.50;;;;;;452853;261;1079;-50
2022/09/01 04:03:03;;;;;;;;;;;21.40;45.60;;;;;;452867;261;1045;-49
2022/09/01 04:05:04;;;;;;;;;;;21.40;45.50;;;;;;452829;261;1096;-50
2022/09/01 04:07:06;;;;;;;;;;;21.40;45.60;;;;;;452799;261;2169;-49
2022/09/01 04:09:07;;;;;;;;;;;21.40;45.60;;;;;;452842;261;1752;-50
2022/09/01 04:11:08;;;;;;;;;;;21.40;45.60;;;;;;452546;261;1203;-50
2022/09/01 04:13:10;;;;;;;;;;;21.40;45.70;;;;;;452834;261;1181;-50
2022/09/01 04:15:11;;;;;;;;;;;21.40;45.70;;;;;;452429;261;1340;-50
2022/09/01 04:19:32;;;;;;;;;;;21.40;45.70;;;;;;452807;263;1136;-50
2022/09/01 04:21:33;;;;;;;;;;;21.40;45.80;;;;;;452759;261;1269;-50
2022/09/01 04:23:35;;;;;;;;;;;21.40;45.80;;;;;;452495;261;1239;-49
2022/09/01 04:25:37;;;;;;;;;;;21.40;45.80;;;;;;452410;261;2088;-50
2022/09/01 04:27:39;;;;;;;;;;;21.40;45.80;;;;;;452468;261;2268;-50
2022/09/01 04:29:39;;;;;;;;;;;21.40;45.80;;;;;;452338;261;2149;-50
2022/09/01 04:31:41;;;;;;;;;;;21.40;45.90;;;;;;452703;261;1413;-51
2022/09/01 04:33:45;;;;;;;;;;;21.40;45.90;;;;;;452381;261;1938;-50
2022/09/01 04:35:43;;;;;;;;;;;21.40;45.90;;;;;;452359;261;1401;-49
2022/09/01 04:37:46;;;;;;;;;;;21.40;45.90;;;;;;452707;261;1337;-49
2022/09/01 04:39:47;;;;;;;;;;;21.30;45.90;;;;;;452407;261;2705;-50
2022/09/01 04:41:50;;;;;;;;;;;21.30;45.90;;;;;;452338;261;2238;-51
2022/09/01 04:43:50;;;;;;;;;;;21.30;46.00;;;;;;452426;261;2214;-49
2022/09/01 04:45:50;;;;;;;;;;;21.40;46.00;;;;;;452398;261;1447;-51
2022/09/01 04:47:51;;;;;;;;;;;21.40;46.10;;;;;;452781;261;2189;-49
2022/09/01 04:49:55;;;;;;;;;;;21.30;46.00;;;;;;452718;261;1333;-50
2022/09/01 04:51:54;;;;;;;;;;;21.40;46.10;;;;;;452582;261;1433;-50
2022/09/01 04:53:56;;;;;;;;;;;21.40;46.10;;;;;;452405;261;1223;-50
2022/09/01 04:55:57;;;;;;;;;;;21.40;46.10;;;;;;452487;261;1578;-50
2022/09/01 04:57:58;;;;;;;;;;;21.30;46.00;;;;;;452783;261;1304;-50
2022/09/01 04:59:59;;;;;;;;;;;21.30;46.10;;;;;;452387;261;1239;-50
2022/09/01 05:02:01;;;;;;;;;;;21.40;46.10;;;;;;452806;261;1266;-50
2022/09/01 05:04:02;;;;;;;;;;;21.30;46.20;;;;;;452806;261;1218;-50
2022/09/01 05:06:03;;;;;;;;;;;21.30;46.10;;;;;;452779;261;1348;-50
2022/09/01 05:08:05;;;;;;;;;;;21.40;46.20;;;;;;452744;261;1212;-50
2022/09/01 05:10:06;;;;;;;;;;;21.30;46.20;;;;;;452755;261;1225;-50
2022/09/01 05:12:10;;;;;;;;;;;21.30;46.20;;;;;;452771;261;1462;-49
2022/09/01 05:14:12;;;;;;;;;;;21.40;46.30;;;;;;452575;261;1376;-50
2022/09/01 05:16:14;;;;;;;;;;;21.30;46.20;;;;;;452764;261;1312;-50
2022/09/01 05:18:15;;;;;;;;;;;21.30;46.20;;;;;;452817;261;2235;-50
2022/09/01 05:20:16;;;;;;;;;;;21.30;46.20;;;;;;452467;261;1248;-50
2022/09/01 05:22:20;;;;;;;;;;;21.30;46.20;;;;;;452827;261;1126;-50
2022/09/01 05:24:20;;;;;;;;;;;21.40;46.30;;;;;;452535;260;1942;-51
2022/09/01 05:26:20;;;;;;;;;;;21.30;46.20;;;;;;452565;261;2186;-50
2022/09/01 05:28:24;;;;;;;;;;;21.30;46.20;;;;;;452625;261;1557;-50
2022/09/01 05:30:27;;;;;;;;;;;21.30;46.20;;;;;;452679;261;1498;-49
2022/09/01 05:32:25;;;;;;;;;;;21.30;46.30;;;;;;452281;261;2716;-50
2022/09/01 05:34:26;;;;;;;;;;;21.30;46.30;;;;;;452297;261;2236;-50
2022/09/01 05:36:27;;;;;;;;;;;21.30;46.30;;;;;;452213;261;1226;-49
2022/09/01 05:38:30;;;;;;;;;;;21.30;46.30;;;;;;452492;261;1240;-49
2022/09/01 05:40:31;;;;;;;;;;;21.40;46.40;;;;;;452453;261;2187;-50
2022/09/01 05:42:31;;;;;;;;;;;21.30;46.40;;;;;;452248;261;2183;-50
2022/09/01 05:44:32;;;;;;;;;;;21.40;46.40;;;;;;452008;261;1213;-49
2022/09/01 05:46:34;;;;;;;;;;;21.30;46.40;;;;;;452126;261;2186;-50
2022/09/01 05:48:38;;;;;;;;;;;21.30;46.40;;;;;;452473;261;1130;-50
2022/09/01 05:50:39;;;;;;;;;;;21.30;46.40;;;;;;452304;261;1652;-49
2022/09/01 05:52:38;;;;;;;;;;;21.30;46.40;;;;;;452337;261;2211;-49
2022/09/01 05:54:40;;;;;;;;;;;21.30;46.40;;;;;;452305;261;1214;-50
2022/09/01 05:56:41;;;;;;;;;;;21.40;46.40;;;;;;452219;261;2309;-50
2022/09/01 05:58:44;;;;;;;;;;;21.30;46.30;;;;;;452289;261;1989;-51
2022/09/01 06:00:43;;;;;;;;;;;21.30;46.30;;;;;;452287;261;1413;-50
2022/09/01 06:02:44;;;;;;;;;;;21.20;46.30;;;;;;452281;261;1166;-50
2022/09/01 06:04:45;;;;;;;;;;;21.20;46.30;;;;;;452171;261;1145;-50
2022/09/01 06:06:48;;;;;;;;;;;21.20;46.20;;;;;;452674;261;2209;-50
2022/09/01 06:08:49;;;;;;;;;;;21.20;46.20;;;;;;452512;261;1204;-51
2022/09/01 06:10:50;;;;;;;;;;;21.20;46.20;;;;;;452514;261;1284;-49
2022/09/01 06:12:52;;;;;;;;;;;21.20;46.10;;;;;;452364;261;1266;-50
2022/09/01 06:14:53;;;;;;;;;;;21.20;46.30;;;;;;452282;261;1234;-50
2022/09/01 06:16:55;;;;;;;;;;;21.20;46.10;;;;;;452339;260;1892;-50
2022/09/01 06:18:58;;;;;;;;;;;21.20;46.10;;;;;;452045;261;1858;-50
2022/09/01 06:20:57;;;;;;;;;;;21.20;46.10;;;;;;452195;261;2266;-51
2022/09/01 06:22:58;;;;;;;;;;;21.30;46.20;;;;;;452068;261;1356;-49
2022/09/01 06:24:59;;;;;;;;;;;21.20;46.10;;;;;;452404;261;1186;-49
2022/09/01 06:27:01;;;;;;;;;;;21.20;46.10;;;;;;452178;261;2177;-49
2022/09/01 06:29:03;;;;;;;;;;;21.20;46.10;;;;;;452502;261;1628;-50
2022/09/01 06:31:03;;;;;;;;;;;21.20;46.10;;;;;;452169;261;2307;-50
2022/09/01 06:33:08;;;;;;;;;;;21.20;46.10;;;;;;452149;261;1288;-50
2022/09/01 06:35:08;;;;;;;;;;;21.20;46.10;;;;;;452322;261;1469;-49
2022/09/01 06:37:08;;;;;;;;;;;21.20;46.10;;;;;;452217;261;2158;-50
2022/09/01 06:39:14;;;;;;;;;;;21.20;46.10;;;;;;452270;261;1369;-50
2022/09/01 06:41:11;;;;;;;;;;;21.20;46.10;;;;;;452413;261;2217;-48
2022/09/01 06:43:12;;;;;;;;;;;21.20;46.10;;;;;;452426;261;2261;-50
2022/09/01 06:45:13;;;;;;;;;;;21.20;46.10;;;;;;452285;261;2946;-50
2022/09/01 06:47:14;;;;;;;;;;;21.20;46.10;;;;;;452083;261;2177;-50
2022/09/01 06:49:16;;;;;;;;;;;21.20;46.10;;;;;;452274;261;1216;-50
2022/09/01 06:51:17;;;;;;;;;;;21.20;46.10;;;;;;452298;261;1373;-50
2022/09/01 06:53:20;;;;;;;;;;;21.20;46.10;;;;;;452354;261;1199;-49
2022/09/01 06:55:20;;;;;;;;;;;21.20;46.10;;;;;;452397;261;2539;-50
2022/09/01 06:57:21;;;;;;;;;;;21.20;46.10;;;;;;452244;261;1226;-50
2022/09/01 06:59:25;;;;;;;;;;;21.20;46.10;;;;;;452175;261;1597;-49
2022/09/01 07:01:24;;;;;;;;;;;21.20;46.10;;;;;;452123;261;2306;-51
2022/09/01 07:03:25;;;;;;;;;;;21.20;46.10;;;;;;452432;261;1261;-49
2022/09/01 07:05:27;;;;;;;;;;;21.20;46.20;;;;;;452292;261;1335;-50
2022/09/01 07:07:33;;;;;;;;;;;21.20;46.00;;;;;;452186;261;2217;-50
2022/09/01 07:09:29;;;;;;;;;;;21.20;46.00;;;;;;452301;261;2126;-50
2022/09/01 07:11:31;;;;;;;;;;;21.20;46.10;;;;;;452132;261;1274;-50
2022/09/01 07:13:34;;;;;;;;;;;21.20;46.00;;;;;;452179;261;2172;-50
2022/09/01 07:15:34;;;;;;;;;;;21.20;46.00;;;;;;452565;261;1610;-50
2022/09/01 07:17:41;;;;;;;;;;;21.20;46.10;;;;;;452430;261;1090;-49
2022/09/01 07:19:36;;;;;;;;;;;21.20;46.10;;;;;;452125;261;2375;-50
2022/09/01 07:21:37;;;;;;;;;;;21.20;46.10;;;;;;452308;261;1191;-49
2022/09/01 07:23:39;;;;;;;;;;;21.20;46.10;;;;;;452145;261;1133;-49
2022/09/01 07:25:40;;;;;;;;;;;21.20;46.10;;;;;;452233;261;1258;-50
2022/09/01 07:27:49;;;;;;;;;;;21.20;46.10;;;;;;452452;261;2189;-50
2022/09/01 07:29:43;;;;;;;;;;;21.20;46.10;;;;;;452153;261;2520;-50
2022/09/01 07:31:44;;;;;;;;;;;21.20;46.10;;;;;;452187;261;1354;-50
2022/09/01 07:33:47;;;;;;;;;;;21.20;46.00;;;;;;452277;261;1213;-49
2022/09/01 07:35:48;;;;;;;;;;;21.20;46.10;;;;;;452162;261;1401;-50
2022/09/01 07:37:49;;;;;;;;;;;21.20;46.00;;;;;;452073;261;1311;-50
2022/09/01 07:39:50;;;;;;;;;;;21.20;46.10;;;;;;452359;261;1522;-50
2022/09/01 07:41:52;;;;;;;;;;;21.20;45.90;;;;;;452149;261;1202;-50
2022/09/01 07:43:55;;;;;;;;;;;21.20;45.80;;;;;;452401;261;1252;-49
2022/09/01 07:45:56;;;;;;;;;;;21.20;46.00;;;;;;451772;261;2277;-50
2022/09/01 07:47:56;;;;;;;;;;;21.20;45.90;;;;;;452194;261;2425;-50
2022/09/01 07:49:58;;;;;;;;;;;21.20;46.00;;;;;;452330;261;1248;-50
2022/09/01 07:52:00;;;;;;;;;;;21.20;45.90;;;;;;452112;261;1588;-49
2022/09/01 07:54:01;;;;;;;;;;;21.20;45.90;;;;;;452098;261;1228;-50
2022/09/01 07:56:01;;;;;;;;;;;21.20;45.90;;;;;;452137;261;1232;-49
2022/09/01 07:58:03;;;;;;;;;;;21.20;46.10;;;;;;452414;261;1181;-49
2022/09/01 08:00:04;;;;;;;;;;;21.20;46.00;;;;;;452422;261;1248;-50
2022/09/01 08:02:06;;;;;;;;;;;21.20;46.00;;;;;;452326;261;1838;-49
2022/09/01 08:04:07;;;;;;;;;;;21.20;46.10;;;;;;452568;261;1070;-51
2022/09/01 08:06:08;;;;;;;;;;;21.20;46.10;;;;;;452249;261;1191;-50
2022/09/01 08:08:10;;;;;;;;;;;21.20;46.10;;;;;;452185;261;2170;-50
2022/09/01 08:10:11;;;;;;;;;;;21.20;46.10;;;;;;452261;261;1213;-50
2022/09/01 08:12:12;;;;;;;;;;;21.20;46.10;;;;;;452021;261;1285;-49
2022/09/01 08:14:13;;;;;;;;;;;21.20;46.10;;;;;;452212;261;1239;-50
2022/09/01 08:16:15;;;;;;;;;;;21.20;46.30;;;;;;452060;261;1686;-50
2022/09/01 08:18:16;;;;;;;;;;;21.20;46.30;;;;;;452227;261;1093;-50
2022/09/01 08:20:18;;;;;;;;;;;21.20;46.10;;;;;;452073;261;1257;-50
2022/09/01 08:22:22;;;;;;;;;;;21.20;46.00;;;;;;451965;262;1662;-49
2022/09/01 08:24:21;;;;;;;;;;;21.20;46.00;;;;;;452149;261;2524;-49
2022/09/01 08:26:22;;;;;;;;;;;21.20;46.10;;;;;;451926;261;1614;-51
2022/09/01 08:28:24;;;;;;;;;;;21.20;46.00;;;;;;452226;261;2205;-49
2022/09/01 08:30:26;;;;;;;;;;;21.20;46.10;;;;;;452329;261;1476;-50
2022/09/01 08:32:27;;;;;;;;;;;21.20;46.10;;;;;;452115;261;2288;-46
2022/09/01 08:34:31;;;;;;;;;;;21.20;46.10;;;;;;452126;261;1289;-51
2022/09/01 08:36:29;;;;;;;;;;;21.20;46.00;;;;;;452223;261;2076;-50
2022/09/01 08:38:31;;;;;;;;;;;21.20;46.00;;;;;;452184;261;1258;-50
2022/09/01 08:40:32;;;;;;;;;;;21.20;46.00;;;;;;451927;261;1224;-49
2022/09/01 08:42:34;;;;;;;;;;;21.20;45.90;;;;;;452156;261;1242;-50
2022/09/01 08:44:35;;;;;;;;;;;21.20;45.90;;;;;;452203;261;1221;-51
2022/09/01 08:46:36;;;;;;;;;;;21.20;45.90;;;;;;452398;261;1270;-49
2022/09/01 08:48:38;;;;;;;;;;;21.30;46.00;;;;;;452498;261;2170;-50
2022/09/01 08:50:39;;;;;;;;;;;21.20;46.00;;;;;;452347;261;1202;-50
2022/09/01 08:52:40;;;;;;;;;;;21.20;45.90;;;;;;452181;261;1359;-49
2022/09/01 08:54:41;;;;;;;;;;;21.20;46.10;;;;;;452367;261;1331;-50
2022/09/01 08:56:43;;;;;;;;;;;21.20;45.90;;;;;;452277;261;1277;-50
2022/09/01 08:58:44;;;;;;;;;;;21.10;46.00;;;;;;452631;261;1242;-50
2022/09/01 09:00:46;;;;;;;;;;;21.10;45.90;;;;;;452255;261;1261;-50
2022/09/01 09:02:48;;;;;;;;;;;21.20;46.00;;;;;;452247;261;1274;-51
2022/09/01 09:04:48;;;;;;;;;;;21.20;46.00;;;;;;452324;261;1762;-50
2022/09/01 09:06:51;;;;;;;;;;;21.20;46.00;;;;;;452365;261;1571;-51
2022/09/01 09:08:51;;;;;;;;;;;21.20;45.80;;;;;;452162;261;2209;-50
2022/09/01 09:10:53;;;;;;;;;;;21.20;46.00;;;;;;452252;261;1260;-50
2022/09/01 09:12:54;;;;;;;;;;;21.20;45.80;;;;;;452117;261;1582;-50
2022/09/01 09:14:56;;;;;;;;;;;21.20;45.80;;;;;;452416;261;1370;-50
2022/09/01 09:16:57;;;;;;;;;;;21.20;45.90;;;;;;452181;261;1540;-51
2022/09/01 09:18:58;;;;;;;;;;;21.20;45.90;;;;;;452316;261;1277;-50
2022/09/01 09:20:59;;;;;;;;;;;21.20;46.00;;;;;;452383;261;1296;-51
2022/09/01 09:23:01;;;;;;;;;;;21.20;46.00;;;;;;452215;261;1247;-50
2022/09/01 09:25:02;;;;;;;;;;;21.20;45.80;;;;;;452341;261;1305;-50
2022/09/01 09:27:03;;;;;;;;;;;21.20;46.00;;;;;;452239;261;1245;-51
2022/09/01 09:29:05;;;;;;;;;;;21.20;45.90;;;;;;452295;261;2229;-51
2022/09/01 09:31:06;;;;;;;;;;;21.20;45.90;;;;;;452222;261;1247;-50
2022/09/01 09:33:09;;;;;;;;;;;21.20;45.80;;;;;;452175;261;1262;-50
2022/09/01 09:35:09;;;;;;;;;;;21.20;45.90;;;;;;452506;261;2230;-50
2022/09/01 09:37:10;;;;;;;;;;;21.20;45.90;;;;;;452445;261;1263;-50
2022/09/01 09:39:11;;;;;;;;;;;21.20;45.90;;;;;;452179;261;1198;-50
2022/09/01 09:41:13;;;;;;;;;;;21.20;46.10;;;;;;452259;261;1231;-50
2022/09/01 09:43:14;;;;;;;;;;;21.20;46.10;;;;;;452293;261;1152;-50
2022/09/01 09:45:18;;;;;;;;;;;21.20;46.10;;;;;;452504;261;1173;-52
2022/09/01 09:47:17;;;;;;;;;;;21.10;45.90;;;;;;452223;261;2169;-49
2022/09/01 09:49:19;;;;;;;;;;;21.10;46.10;;;;;;452153;261;2203;-51
2022/09/01 09:51:20;;;;;;;;;;;21.10;46.00;;;;;;452301;261;2087;-50
2022/09/01 09:53:21;;;;;;;;;;;21.20;45.90;;;;;;452234;261;1327;-50
2022/09/01 09:55:23;;;;;;;;;;;21.20;45.90;;;;;;452328;261;1143;-50
2022/09/01 09:57:24;;;;;;;;;;;21.10;45.90;;;;;;452066;261;1275;-50
2022/09/01 09:59:25;;;;;;;;;;;21.10;45.90;;;;;;452314;261;1095;-49
2022/09/01 10:01:27;;;;;;;;;;;21.10;45.90;;;;;;452270;261;1082;-50
2022/09/01 10:03:28;;;;;;;;;;;21.10;45.90;;;;;;452223;261;1252;-50
2022/09/01 10:05:29;;;;;;;;;;;21.20;45.80;;;;;;452389;261;2357;-50
2022/09/01 10:07:31;;;;;;;;;;;21.10;45.80;;;;;;452261;261;1177;-50
2022/09/01 10:09:32;;;;;;;;;;;21.20;45.90;;;;;;452207;261;2203;-50
2022/09/01 10:11:33;;;;;;;;;;;21.20;45.70;;;;;;452634;261;1246;-51
2022/09/01 10:13:35;;;;;;;;;;;21.20;45.70;;;;;;452240;261;1163;-50
2022/09/01 10:15:36;;;;;;;;;;;21.20;45.80;;;;;;452278;261;1099;-50
2022/09/01 10:17:37;;;;;;;;;;;21.20;45.80;;;;;;452206;261;1334;-50
2022/09/01 10:19:40;;;;;;;;;;;21.20;45.70;;;;;;452394;261;1068;-50
2022/09/01 10:21:40;;;;;;;;;;;21.20;45.70;;;;;;452238;261;1516;-50
2022/09/01 10:23:42;;;;;;;;;;;21.20;45.70;;;;;;452218;261;1283;-51
2022/09/01 10:25:43;;;;;;;;;;;21.20;45.70;;;;;;452290;261;1324;-50
2022/09/01 10:27:45;;;;;;;;;;;21.20;45.60;;;;;;452277;261;1239;-50
2022/09/01 10:29:46;;;;;;;;;;;21.20;45.60;;;;;;452198;261;2201;-51
2022/09/01 10:31:48;;;;;;;;;;;21.20;45.70;;;;;;452156;261;1374;-51
2022/09/01 10:33:49;;;;;;;;;;;21.20;45.60;;;;;;452327;261;1257;-51
2022/09/01 10:35:50;;;;;;;;;;;21.20;45.60;;;;;;452264;261;1208;-50
2022/09/01 10:37:51;;;;;;;;;;;21.20;45.60;;;;;;452265;261;1578;-50
2022/09/01 10:39:53;;;;;;;;;;;21.20;45.60;;;;;;452285;261;1337;-50
2022/09/01 10:41:56;;;;;;;;;;;21.20;45.70;;;;;;452243;261;1184;-50
2022/09/01 10:43:58;;;;;;;;;;;21.20;45.50;;;;;;452326;261;1888;-50
2022/09/01 10:45:57;;;;;;;;;;;21.20;45.50;;;;;;452436;261;1794;-50
2022/09/01 10:47:59;;;;;;;;;;;21.20;45.50;;;;;;452227;261;1593;-50
2022/09/01 10:50:00;;;;;;;;;;;21.20;45.50;;;;;;452259;263;2143;-52
2022/09/01 10:52:01;;;;;;;;;;;21.20;45.50;;;;;;452151;261;1235;-50
2022/09/01 10:54:04;;;;;;;;;;;21.20;45.50;;;;;;452120;261;1217;-50
2022/09/01 10:56:04;;;;;;;;;;;21.20;45.50;;;;;;452500;261;1871;-50
2022/09/01 10:58:06;;;;;;;;;;;21.20;45.50;;;;;;452186;261;1211;-51
2022/09/01 11:00:07;;;;;;;;;;;21.20;45.50;;;;;;452341;261;1208;-50
2022/09/01 11:02:09;;;;;;;;;;;21.20;45.60;;;;;;452233;261;1327;-50
2022/09/01 11:04:10;;;;;;;;;;;21.20;45.50;;;;;;452212;261;1240;-51
2022/09/01 11:06:11;;;;;;;;;;;21.20;45.50;;;;;;452031;261;1217;-51
2022/09/01 11:08:13;;;;;;;;;;;21.20;45.50;;;;;;451997;261;1326;-50
2022/09/01 11:10:14;;;;;;;;;;;21.20;45.50;;;;;;452063;261;2149;-50
2022/09/01 11:12:16;;;;;;;;;;;21.20;45.50;;;;;;452067;261;1190;-51
2022/09/01 11:14:17;;;;;;;;;;;21.20;45.60;;;;;;452123;261;1234;-50
2022/09/01 11:16:18;;;;;;;;;;;21.20;45.60;;;;;;452129;261;1207;-50
2022/09/01 11:18:20;;;;;;;;;;;21.20;45.70;;;;;;452007;261;1219;-50
2022/09/01 11:20:21;;;;;;;;;;;21.20;45.70;;;;;;452013;261;1295;-50
2022/09/01 11:22:22;;;;;;;;;;;21.20;45.70;;;;;;451997;261;1367;-50
2022/09/01 11:24:24;;;;;;;;;;;21.20;45.70;;;;;;451940;261;1212;-52
2022/09/01 11:26:25;;;;;;;;;;;21.10;45.50;;;;;;452023;261;1286;-51
2022/09/01 11:28:26;;;;;;;;;;;21.20;45.60;;;;;;452025;261;2205;-50
2022/09/01 11:30:28;;;;;;;;;;;21.20;45.60;;;;;;452218;261;1258;-50
2022/09/01 11:32:29;;;;;;;;;;;21.20;45.60;;;;;;452050;261;1497;-51
2022/09/01 11:34:30;;;;;;;;;;;21.20;45.50;;;;;;452279;261;1204;-51
2022/09/01 11:36:33;;;;;;;;;;;21.20;45.40;;;;;;452039;261;1254;-50
2022/09/01 11:38:34;;;;;;;;;;;21.20;45.50;;;;;;452166;261;1311;-50
2022/09/01 11:40:36;;;;;;;;;;;21.10;45.40;;;;;;452162;261;1170;-51
2022/09/01 11:42:37;;;;;;;;;;;21.10;45.50;;;;;;452019;261;1244;-50
2022/09/01 11:44:38;;;;;;;;;;;21.10;45.50;;;;;;452249;261;1337;-50
2022/09/01 11:46:42;;;;;;;;;;;21.10;45.50;;;;;;452054;261;1481;-50
2022/09/01 11:48:41;;;;;;;;;;;21.10;45.50;;;;;;452043;261;2351;-50
2022/09/01 11:50:43;;;;;;;;;;;21.20;45.40;;;;;;452124;261;1389;-51
2022/09/01 11:52:44;;;;;;;;;;;21.20;45.50;;;;;;452137;261;1309;-50
2022/09/01 11:54:46;;;;;;;;;;;21.10;45.40;;;;;;452082;261;1267;-50
2022/09/01 11:56:47;;;;;;;;;;;21.20;45.40;;;;;;452078;261;1270;-51
2022/09/01 11:58:48;;;;;;;;;;;21.20;45.40;;;;;;452026;261;1277;-50
2022/09/01 12:00:50;;;;;;;;;;;21.20;45.30;;;;;;452299;261;1247;-51
2022/09/01 12:02:53;;;;;;;;;;;21.20;45.40;;;;;;452108;261;1244;-50